sensor_id;sensor_type;location;lat;lon;timestamp;temperature;humidity
2407;DHT22;37709;53.480;9.688;2022-12-01T00:01:20;3.80;99.90
2407;DHT22;37709;53.480;9.688;2022-12-01T00:03:47;3.90;99.90
2407;DHT22;37709;53.480;9.688;2022-12-01T00:06:18;3.80;99.90
2407;DHT22;37709;53.480;9.688;2022-12-01T00:08:47;3.80;99.90
2407;DHT22;37709;53.480;9.688;2022-12-01T00:11:35;3.80;99.90
2407;DHT22;37709;53.480;9.688;2022-12-01T00:14:04;3.80;99.90
2407;DHT22;37709;53.480;9.688;2022-12-01T00:16:31;3.80;99.90
2407;DHT22;37709;53.480;9.688;2022-12-01T00:18:59;3.80;99.90
2407;DHT22;37709;53.480;9.688;2022-12-01T00:21:26;3.80;99.90
2407;DHT22;37709;53.480;9.688;2022-12-01T00:23:55;3.80;99.90
2407;DHT22;37709;53.480;9.688;2022-12-01T00:26:24;3.80;99.90
2407;DHT22;37709;53.480;9.688;2022-12-01T00:28:55;3.80;99.90
2407;DHT22;37709;53.480;9.688;2022-12-01T00:31:22;3.80;99.90
2407;DHT22;37709;53.480;9.688;2022-12-01T00:33:50;3.80;99.90
2407;DHT22;37709;53.480;9.688;2022-12-01T00:36:17;3.80;99.90
2407;DHT22;37709;53.480;9.688;2022-12-01T00:38:45;3.80;99.90
2407;DHT22;37709;53.480;9.688;2022-12-01T00:41:13;3.80;99.90
2407;DHT22;37709;53.480;9.688;2022-12-01T00:43:40;3.80;99.90
2407;DHT22;37709;53.480;9.688;2022-12-01T00:46:08;3.80;99.90
2407;DHT22;37709;53.480;9.688;2022-12-01T00:48:35;3.80;99.90
2407;DHT22;37709;53.480;9.688;2022-12-01T00:51:02;3.80;99.90
2407;DHT22;37709;53.480;9.688;2022-12-01T00:53:30;3.80;99.90
2407;DHT22;37709;53.480;9.688;2022-12-01T00:55:58;3.80;99.90
2407;DHT22;37709;53.480;9.688;2022-12-01T00:58:25;3.80;99.90
2407;DHT22;37709;53.480;9.688;2022-12-01T01:00:59;3.80;99.90
2407;DHT22;37709;53.480;9.688;2022-12-01T01:03:27;3.80;99.90
2407;DHT22;37709;53.480;9.688;2022-12-01T01:05:55;3.80;99.90
2407;DHT22;37709;53.480;9.688;2022-12-01T01:08:28;3.80;99.90
2407;DHT22;37709;53.480;9.688;2022-12-01T01:10:58;3.80;99.90
2407;DHT22;37709;53.480;9.688;2022-12-01T01:13:25;3.80;99.90
2407;DHT22;37709;53.480;9.688;2022-12-01T01:16:04;3.80;99.90
2407;DHT22;37709;53.480;9.688;2022-12-01T01:18:32;3.80;99.90
2407;DHT22;37709;53.480;9.688;2022-12-01T01:21:03;3.80;99.90
2407;DHT22;37709;53.480;9.688;2022-12-01T01:23:30;3.70;99.90
2407;DHT22;37709;53.480;9.688;2022-12-01T01:26:03;3.80;99.90
2407;DHT22;37709;53.480;9.688;2022-12-01T01:28:31;3.70;99.90
2407;DHT22;37709;53.480;9.688;2022-12-01T01:30:59;3.80;99.90
2407;DHT22;37709;53.480;9.688;2022-12-01T01:33:26;3.70;99.90
2407;DHT22;37709;53.480;9.688;2022-12-01T01:35:57;3.70;99.90
2407;DHT22;37709;53.480;9.688;2022-12-01T01:38:26;3.70;99.90
2407;DHT22;37709;53.480;9.688;2022-12-01T01:40:54;3.70;99.90
2407;DHT22;37709;53.480;9.688;2022-12-01T01:46:15;3.70;99.90
2407;DHT22;37709;53.480;9.688;2022-12-01T01:48:55;3.70;99.90
2407;DHT22;37709;53.480;9.688;2022-12-01T01:51:29;3.70;99.90
2407;DHT22;37709;53.480;9.688;2022-12-01T01:54:03;3.70;99.90
2407;DHT22;37709;53.480;9.688;2022-12-01T01:56:32;3.70;99.90
2407;DHT22;37709;53.480;9.688;2022-12-01T01:59:01;3.70;99.90
2407;DHT22;37709;53.480;9.688;2022-12-01T02:01:29;3.70;99.90
2407;DHT22;37709;53.480;9.688;2022-12-01T02:03:57;3.70;99.90
2407;DHT22;37709;53.480;9.688;2022-12-01T02:06:25;3.70;99.90
2407;DHT22;37709;53.480;9.688;2022-12-01T02:08:52;3.70;99.90
2407;DHT22;37709;53.480;9.688;2022-12-01T02:11:49;3.70;99.90
2407;DHT22;37709;53.480;9.688;2022-12-01T02:17:04;3.70;99.90
2407;DHT22;37709;53.480;9.688;2022-12-01T02:31:12;3.60;99.90
2407;DHT22;37709;53.480;9.688;2022-12-01T02:34:05;3.60;99.90
2407;DHT22;37709;53.480;9.688;2022-12-01T02:36:45;3.60;99.90
2407;DHT22;37709;53.480;9.688;2022-12-01T02:39:28;3.60;99.90
2407;DHT22;37709;53.480;9.688;2022-12-01T02:42:07;3.60;99.90
2407;DHT22;37709;53.480;9.688;2022-12-01T02:44:41;3.60;99.90
2407;DHT22;37709;53.480;9.688;2022-12-01T02:47:15;3.60;99.90
2407;DHT22;37709;53.480;9.688;2022-12-01T02:49:46;3.60;99.90
2407;DHT22;37709;53.480;9.688;2022-12-01T02:52:16;3.60;99.90
2407;DHT22;37709;53.480;9.688;2022-12-01T02:54:46;3.60;99.90
2407;DHT22;37709;53.480;9.688;2022-12-01T02:57:15;3.60;99.90
2407;DHT22;37709;53.480;9.688;2022-12-01T02:59:46;3.60;99.90
2407;DHT22;37709;53.480;9.688;2022-12-01T03:02:36;3.60;99.90
2407;DHT22;37709;53.480;9.688;2022-12-01T03:05:15;3.60;99.90
2407;DHT22;37709;53.480;9.688;2022-12-01T03:07:55;3.60;99.90
2407;DHT22;37709;53.480;9.688;2022-12-01T03:10:47;3.60;99.90
2407;DHT22;37709;53.480;9.688;2022-12-01T03:16:09;3.60;99.90
2407;DHT22;37709;53.480;9.688;2022-12-01T03:24:04;3.60;99.90
2407;DHT22;37709;53.480;9.688;2022-12-01T03:26:35;3.60;99.90
2407;DHT22;37709;53.480;9.688;2022-12-01T03:29:15;3.50;99.90
2407;DHT22;37709;53.480;9.688;2022-12-01T03:31:47;3.60;99.90
2407;DHT22;37709;53.480;9.688;2022-12-01T03:34:35;3.60;99.90
2407;DHT22;37709;53.480;9.688;2022-12-01T03:37:08;3.50;99.90
2407;DHT22;37709;53.480;9.688;2022-12-01T03:39:37;3.50;99.90
2407;DHT22;37709;53.480;9.688;2022-12-01T03:42:17;3.50;99.90
2407;DHT22;37709;53.480;9.688;2022-12-01T03:44:49;3.50;99.90
2407;DHT22;37709;53.480;9.688;2022-12-01T03:47:20;3.40;99.90
2407;DHT22;37709;53.480;9.688;2022-12-01T03:49:50;3.50;99.90
2407;DHT22;37709;53.480;9.688;2022-12-01T03:58:00;3.40;99.90
2407;DHT22;37709;53.480;9.688;2022-12-01T04:00:29;3.40;99.90
2407;DHT22;37709;53.480;9.688;2022-12-01T04:02:59;3.40;99.90
2407;DHT22;37709;53.480;9.688;2022-12-01T04:05:30;3.40;99.90
2407;DHT22;37709;53.480;9.688;2022-12-01T04:07:59;3.40;99.90
2407;DHT22;37709;53.480;9.688;2022-12-01T04:10:26;3.40;99.90
2407;DHT22;37709;53.480;9.688;2022-12-01T04:12:54;3.40;99.90
2407;DHT22;37709;53.480;9.688;2022-12-01T04:15:26;3.40;99.90
2407;DHT22;37709;53.480;9.688;2022-12-01T04:17:53;3.40;99.90
2407;DHT22;37709;53.480;9.688;2022-12-01T04:20:20;3.30;99.90
2407;DHT22;37709;53.480;9.688;2022-12-01T04:22:48;3.30;99.90
2407;DHT22;37709;53.480;9.688;2022-12-01T04:25:15;3.40;99.90
2407;DHT22;37709;53.480;9.688;2022-12-01T04:27:44;3.40;99.90
2407;DHT22;37709;53.480;9.688;2022-12-01T04:30:12;3.40;99.90
2407;DHT22;37709;53.480;9.688;2022-12-01T04:32:41;3.30;99.90
2407;DHT22;37709;53.480;9.688;2022-12-01T04:35:10;3.40;99.90
2407;DHT22;37709;53.480;9.688;2022-12-01T04:37:38;3.30;99.90
2407;DHT22;37709;53.480;9.688;2022-12-01T04:40:06;3.30;99.90
2407;DHT22;37709;53.480;9.688;2022-12-01T04:42:34;3.30;99.90
2407;DHT22;37709;53.480;9.688;2022-12-01T04:45:02;3.30;99.90
2407;DHT22;37709;53.480;9.688;2022-12-01T04:47:29;3.30;99.90
2407;DHT22;37709;53.480;9.688;2022-12-01T04:49:57;3.30;99.90
2407;DHT22;37709;53.480;9.688;2022-12-01T04:52:24;3.30;99.90
2407;DHT22;37709;53.480;9.688;2022-12-01T04:54:56;3.30;99.90
2407;DHT22;37709;53.480;9.688;2022-12-01T04:57:24;3.30;99.90
2407;DHT22;37709;53.480;9.688;2022-12-01T04:59:52;3.30;99.90
2407;DHT22;37709;53.480;9.688;2022-12-01T05:02:19;3.30;99.90
2407;DHT22;37709;53.480;9.688;2022-12-01T05:04:47;3.30;99.90
2407;DHT22;37709;53.480;9.688;2022-12-01T05:07:14;3.20;99.90
2407;DHT22;37709;53.480;9.688;2022-12-01T05:09:41;3.20;99.90
2407;DHT22;37709;53.480;9.688;2022-12-01T05:12:13;3.20;99.90
2407;DHT22;37709;53.480;9.688;2022-12-01T05:14:51;3.20;99.90
2407;DHT22;37709;53.480;9.688;2022-12-01T05:17:18;3.20;99.90
2407;DHT22;37709;53.480;9.688;2022-12-01T05:19:46;3.20;99.90
2407;DHT22;37709;53.480;9.688;2022-12-01T05:22:33;3.20;99.90
2407;DHT22;37709;53.480;9.688;2022-12-01T05:25:20;3.20;99.90
2407;DHT22;37709;53.480;9.688;2022-12-01T05:27:48;3.20;99.90
2407;DHT22;37709;53.480;9.688;2022-12-01T05:30:15;3.20;99.90
2407;DHT22;37709;53.480;9.688;2022-12-01T05:32:43;3.20;99.90
2407;DHT22;37709;53.480;9.688;2022-12-01T05:35:10;3.20;99.90
2407;DHT22;37709;53.480;9.688;2022-12-01T05:37:37;3.10;99.90
2407;DHT22;37709;53.480;9.688;2022-12-01T05:40:05;3.20;99.90
2407;DHT22;37709;53.480;9.688;2022-12-01T05:42:33;3.20;99.90
2407;DHT22;37709;53.480;9.688;2022-12-01T05:45:04;3.20;99.90
2407;DHT22;37709;53.480;9.688;2022-12-01T05:47:32;3.10;99.90
2407;DHT22;37709;53.480;9.688;2022-12-01T05:49:59;3.10;99.90
2407;DHT22;37709;53.480;9.688;2022-12-01T05:52:33;3.10;99.90
2407;DHT22;37709;53.480;9.688;2022-12-01T05:55:04;3.10;99.90
2407;DHT22;37709;53.480;9.688;2022-12-01T05:57:32;3.10;99.90
2407;DHT22;37709;53.480;9.688;2022-12-01T05:59:59;3.10;99.90
2407;DHT22;37709;53.480;9.688;2022-12-01T06:02:27;3.10;99.90
2407;DHT22;37709;53.480;9.688;2022-12-01T06:04:54;3.10;99.90
2407;DHT22;37709;53.480;9.688;2022-12-01T06:07:21;3.10;99.90
2407;DHT22;37709;53.480;9.688;2022-12-01T06:09:51;3.10;99.90
2407;DHT22;37709;53.480;9.688;2022-12-01T06:12:19;3.10;99.90
2407;DHT22;37709;53.480;9.688;2022-12-01T06:14:46;3.10;99.90
2407;DHT22;37709;53.480;9.688;2022-12-01T06:17:13;3.10;99.90
2407;DHT22;37709;53.480;9.688;2022-12-01T06:19:40;3.10;99.90
2407;DHT22;37709;53.480;9.688;2022-12-01T06:22:09;3.10;99.90
2407;DHT22;37709;53.480;9.688;2022-12-01T06:24:37;3.10;99.90
2407;DHT22;37709;53.480;9.688;2022-12-01T06:27:04;3.10;99.90
2407;DHT22;37709;53.480;9.688;2022-12-01T06:29:31;3.10;99.90
2407;DHT22;37709;53.480;9.688;2022-12-01T06:32:04;3.10;99.90
2407;DHT22;37709;53.480;9.688;2022-12-01T06:34:31;3.10;99.90
2407;DHT22;37709;53.480;9.688;2022-12-01T06:36:58;3.10;99.90
2407;DHT22;37709;53.480;9.688;2022-12-01T06:39:25;3.10;99.90
2407;DHT22;37709;53.480;9.688;2022-12-01T06:41:52;3.10;99.90
2407;DHT22;37709;53.480;9.688;2022-12-01T06:44:20;3.00;99.90
2407;DHT22;37709;53.480;9.688;2022-12-01T06:46:47;3.10;99.90
2407;DHT22;37709;53.480;9.688;2022-12-01T06:49:19;3.10;99.90
2407;DHT22;37709;53.480;9.688;2022-12-01T06:51:46;3.10;99.90
2407;DHT22;37709;53.480;9.688;2022-12-01T06:54:13;3.10;99.90
2407;DHT22;37709;53.480;9.688;2022-12-01T06:56:41;3.10;99.90
2407;DHT22;37709;53.480;9.688;2022-12-01T06:59:12;3.00;99.90
2407;DHT22;37709;53.480;9.688;2022-12-01T07:01:39;3.10;99.90
2407;DHT22;37709;53.480;9.688;2022-12-01T07:04:07;3.00;99.90
2407;DHT22;37709;53.480;9.688;2022-12-01T07:06:34;3.00;99.90
2407;DHT22;37709;53.480;9.688;2022-12-01T07:09:02;3.10;99.90
2407;DHT22;37709;53.480;9.688;2022-12-01T07:11:29;3.00;99.90
2407;DHT22;37709;53.480;9.688;2022-12-01T07:13:58;3.10;99.90
2407;DHT22;37709;53.480;9.688;2022-12-01T07:16:25;3.10;99.90
2407;DHT22;37709;53.480;9.688;2022-12-01T07:18:52;3.10;99.90
2407;DHT22;37709;53.480;9.688;2022-12-01T07:21:20;3.10;99.90
2407;DHT22;37709;53.480;9.688;2022-12-01T07:23:47;3.10;99.90
2407;DHT22;37709;53.480;9.688;2022-12-01T07:26:16;3.10;99.90
2407;DHT22;37709;53.480;9.688;2022-12-01T07:28:47;3.10;99.90
2407;DHT22;37709;53.480;9.688;2022-12-01T07:31:16;3.10;99.90
2407;DHT22;37709;53.480;9.688;2022-12-01T07:33:44;3.10;99.90
2407;DHT22;37709;53.480;9.688;2022-12-01T07:36:13;3.10;99.90
2407;DHT22;37709;53.480;9.688;2022-12-01T07:38:40;3.10;99.90
2407;DHT22;37709;53.480;9.688;2022-12-01T07:41:10;3.10;99.90
2407;DHT22;37709;53.480;9.688;2022-12-01T07:43:38;3.10;99.90
2407;DHT22;37709;53.480;9.688;2022-12-01T07:46:11;3.10;99.90
2407;DHT22;37709;53.480;9.688;2022-12-01T07:48:46;3.20;99.90
2407;DHT22;37709;53.480;9.688;2022-12-01T07:51:15;3.20;99.90
2407;DHT22;37709;53.480;9.688;2022-12-01T07:53:44;3.20;99.90
2407;DHT22;37709;53.480;9.688;2022-12-01T07:56:12;3.20;99.90
2407;DHT22;37709;53.480;9.688;2022-12-01T07:58:39;3.20;99.90
2407;DHT22;37709;53.480;9.688;2022-12-01T08:01:09;3.20;99.90
2407;DHT22;37709;53.480;9.688;2022-12-01T08:03:38;3.30;99.90
2407;DHT22;37709;53.480;9.688;2022-12-01T08:06:06;3.30;99.90
2407;DHT22;37709;53.480;9.688;2022-12-01T08:08:35;3.30;99.90
2407;DHT22;37709;53.480;9.688;2022-12-01T08:11:06;3.30;99.90
2407;DHT22;37709;53.480;9.688;2022-12-01T08:13:33;3.30;99.90
2407;DHT22;37709;53.480;9.688;2022-12-01T08:16:05;3.40;99.90
2407;DHT22;37709;53.480;9.688;2022-12-01T08:18:34;3.40;99.90
2407;DHT22;37709;53.480;9.688;2022-12-01T08:21:02;3.40;99.90
2407;DHT22;37709;53.480;9.688;2022-12-01T08:23:29;3.40;99.90
2407;DHT22;37709;53.480;9.688;2022-12-01T08:26:01;3.50;99.90
2407;DHT22;37709;53.480;9.688;2022-12-01T08:28:29;3.50;99.90
2407;DHT22;37709;53.480;9.688;2022-12-01T08:30:56;3.50;99.90
2407;DHT22;37709;53.480;9.688;2022-12-01T08:33:24;3.50;99.90
2407;DHT22;37709;53.480;9.688;2022-12-01T08:35:51;3.60;99.90
2407;DHT22;37709;53.480;9.688;2022-12-01T08:38:19;3.60;99.90
2407;DHT22;37709;53.480;9.688;2022-12-01T08:40:46;3.60;99.90
2407;DHT22;37709;53.480;9.688;2022-12-01T08:43:13;3.70;99.90
2407;DHT22;37709;53.480;9.688;2022-12-01T08:46:00;3.70;99.90
2407;DHT22;37709;53.480;9.688;2022-12-01T08:48:28;3.70;99.90
2407;DHT22;37709;53.480;9.688;2022-12-01T08:53:34;3.70;99.90
2407;DHT22;37709;53.480;9.688;2022-12-01T08:56:14;3.80;99.90
2407;DHT22;37709;53.480;9.688;2022-12-01T08:58:42;3.80;99.90
2407;DHT22;37709;53.480;9.688;2022-12-01T09:01:12;3.80;99.90
2407;DHT22;37709;53.480;9.688;2022-12-01T09:03:40;3.90;99.90
2407;DHT22;37709;53.480;9.688;2022-12-01T09:06:15;3.90;99.90
2407;DHT22;37709;53.480;9.688;2022-12-01T09:08:43;4.00;99.90
2407;DHT22;37709;53.480;9.688;2022-12-01T09:11:16;4.10;99.90
2407;DHT22;37709;53.480;9.688;2022-12-01T09:13:44;4.10;99.90
2407;DHT22;37709;53.480;9.688;2022-12-01T09:16:19;4.10;99.90
2407;DHT22;37709;53.480;9.688;2022-12-01T09:18:46;4.10;99.90
2407;DHT22;37709;53.480;9.688;2022-12-01T09:21:22;4.10;99.90
2407;DHT22;37709;53.480;9.688;2022-12-01T09:23:51;4.10;99.90
2407;DHT22;37709;53.480;9.688;2022-12-01T09:26:18;4.10;99.90
2407;DHT22;37709;53.480;9.688;2022-12-01T09:28:48;4.10;99.90
2407;DHT22;37709;53.480;9.688;2022-12-01T09:31:16;4.00;99.90
2407;DHT22;37709;53.480;9.688;2022-12-01T09:33:44;4.00;99.90
2407;DHT22;37709;53.480;9.688;2022-12-01T09:36:12;4.10;99.90
2407;DHT22;37709;53.480;9.688;2022-12-01T09:38:39;4.10;99.90
2407;DHT22;37709;53.480;9.688;2022-12-01T09:46:45;4.10;99.90
2407;DHT22;37709;53.480;9.688;2022-12-01T09:49:17;4.00;99.90
2407;DHT22;37709;53.480;9.688;2022-12-01T09:51:45;4.10;99.90
2407;DHT22;37709;53.480;9.688;2022-12-01T09:54:13;4.10;99.90
2407;DHT22;37709;53.480;9.688;2022-12-01T09:56:44;4.20;99.90
2407;DHT22;37709;53.480;9.688;2022-12-01T09:59:22;4.20;99.90
2407;DHT22;37709;53.480;9.688;2022-12-01T10:01:54;4.20;99.90
2407;DHT22;37709;53.480;9.688;2022-12-01T10:04:43;4.20;99.90
2407;DHT22;37709;53.480;9.688;2022-12-01T10:07:22;4.30;99.90
2407;DHT22;37709;53.480;9.688;2022-12-01T10:10:29;4.30;99.90
2407;DHT22;37709;53.480;9.688;2022-12-01T10:12:57;4.30;99.90
2407;DHT22;37709;53.480;9.688;2022-12-01T10:15:28;4.30;99.90
2407;DHT22;37709;53.480;9.688;2022-12-01T10:18:22;4.30;99.90
2407;DHT22;37709;53.480;9.688;2022-12-01T10:21:18;4.30;99.90
2407;DHT22;37709;53.480;9.688;2022-12-01T10:29:48;4.30;99.90
2407;DHT22;37709;53.480;9.688;2022-12-01T10:32:21;4.40;99.90
2407;DHT22;37709;53.480;9.688;2022-12-01T10:34:50;4.40;99.90
2407;DHT22;37709;53.480;9.688;2022-12-01T10:37:21;4.50;99.90
2407;DHT22;37709;53.480;9.688;2022-12-01T10:39:50;4.50;99.90
2407;DHT22;37709;53.480;9.688;2022-12-01T10:42:36;4.50;99.90
2407;DHT22;37709;53.480;9.688;2022-12-01T10:45:21;4.60;99.90
2407;DHT22;37709;53.480;9.688;2022-12-01T10:48:10;4.60;99.90
2407;DHT22;37709;53.480;9.688;2022-12-01T10:50:39;4.70;99.90
2407;DHT22;37709;53.480;9.688;2022-12-01T10:53:40;4.70;99.90
2407;DHT22;37709;53.480;9.688;2022-12-01T10:56:19;4.70;99.90
2407;DHT22;37709;53.480;9.688;2022-12-01T10:58:54;4.80;99.90
2407;DHT22;37709;53.480;9.688;2022-12-01T11:01:27;4.80;99.90
2407;DHT22;37709;53.480;9.688;2022-12-01T11:03:57;4.90;99.90
2407;DHT22;37709;53.480;9.688;2022-12-01T11:06:29;5.00;99.90
2407;DHT22;37709;53.480;9.688;2022-12-01T11:09:03;5.10;99.90
2407;DHT22;37709;53.480;9.688;2022-12-01T11:14:00;4.90;99.90
2407;DHT22;37709;53.480;9.688;2022-12-01T11:16:43;4.90;99.90
2407;DHT22;37709;53.480;9.688;2022-12-01T11:19:33;4.80;99.90
2407;DHT22;37709;53.480;9.688;2022-12-01T11:22:19;4.70;99.90
2407;DHT22;37709;53.480;9.688;2022-12-01T11:25:03;4.60;99.90
2407;DHT22;37709;53.480;9.688;2022-12-01T11:27:52;4.60;99.90
2407;DHT22;37709;53.480;9.688;2022-12-01T11:30:25;4.50;99.90
2407;DHT22;37709;53.480;9.688;2022-12-01T11:32:56;4.50;99.90
2407;DHT22;37709;53.480;9.688;2022-12-01T11:35:27;4.40;99.90
2407;DHT22;37709;53.480;9.688;2022-12-01T11:37:58;4.40;99.90
2407;DHT22;37709;53.480;9.688;2022-12-01T11:40:49;4.40;99.90
2407;DHT22;37709;53.480;9.688;2022-12-01T11:43:26;4.50;99.90
2407;DHT22;37709;53.480;9.688;2022-12-01T11:45:56;4.40;99.90
2407;DHT22;37709;53.480;9.688;2022-12-01T11:48:26;4.40;99.90
2407;DHT22;37709;53.480;9.688;2022-12-01T11:53:47;4.40;99.90
2407;DHT22;37709;53.480;9.688;2022-12-01T11:56:24;4.30;99.90
2407;DHT22;37709;53.480;9.688;2022-12-01T11:59:03;4.20;99.90
2407;DHT22;37709;53.480;9.688;2022-12-01T12:01:57;4.10;99.90
2407;DHT22;37709;53.480;9.688;2022-12-01T12:04:56;3.90;99.90
2407;DHT22;37709;53.480;9.688;2022-12-01T12:10:33;3.90;99.90
2407;DHT22;37709;53.480;9.688;2022-12-01T12:21:19;3.60;99.90
2407;DHT22;37709;53.480;9.688;2022-12-01T12:24:04;3.60;99.90
2407;DHT22;37709;53.480;9.688;2022-12-01T12:29:37;3.50;99.90
2407;DHT22;37709;53.480;9.688;2022-12-01T12:32:26;3.50;99.90
2407;DHT22;37709;53.480;9.688;2022-12-01T12:35:20;3.40;99.90
2407;DHT22;37709;53.480;9.688;2022-12-01T12:38:16;3.40;99.90
2407;DHT22;37709;53.480;9.688;2022-12-01T12:40:57;3.40;99.90
2407;DHT22;37709;53.480;9.688;2022-12-01T12:43:47;3.30;99.90
2407;DHT22;37709;53.480;9.688;2022-12-01T12:52:14;3.20;99.90
2407;DHT22;37709;53.480;9.688;2022-12-01T12:54:53;3.10;99.90
2407;DHT22;37709;53.480;9.688;2022-12-01T12:57:35;3.10;99.90
2407;DHT22;37709;53.480;9.688;2022-12-01T13:00:16;3.10;99.90
2407;DHT22;37709;53.480;9.688;2022-12-01T13:03:03;3.00;99.90
2407;DHT22;37709;53.480;9.688;2022-12-01T13:05:39;3.00;99.90
2407;DHT22;37709;53.480;9.688;2022-12-01T13:08:10;3.00;99.90
2407;DHT22;37709;53.480;9.688;2022-12-01T13:10:54;3.00;99.90
2407;DHT22;37709;53.480;9.688;2022-12-01T13:16:26;3.00;99.90
2407;DHT22;37709;53.480;9.688;2022-12-01T13:19:04;3.00;99.90
2407;DHT22;37709;53.480;9.688;2022-12-01T13:21:37;2.90;99.90
2407;DHT22;37709;53.480;9.688;2022-12-01T13:24:16;2.90;99.90
2407;DHT22;37709;53.480;9.688;2022-12-01T13:29:38;2.90;99.90
2407;DHT22;37709;53.480;9.688;2022-12-01T13:32:39;2.80;99.90
2407;DHT22;37709;53.480;9.688;2022-12-01T13:38:20;2.70;99.90
2407;DHT22;37709;53.480;9.688;2022-12-01T13:40:48;2.70;99.90
2407;DHT22;37709;53.480;9.688;2022-12-01T13:43:20;2.70;99.90
2407;DHT22;37709;53.480;9.688;2022-12-01T13:45:49;2.70;99.90
2407;DHT22;37709;53.480;9.688;2022-12-01T13:51:14;2.60;99.90
2407;DHT22;37709;53.480;9.688;2022-12-01T13:56:45;2.50;99.90
2407;DHT22;37709;53.480;9.688;2022-12-01T14:02:20;2.50;99.90
2407;DHT22;37709;53.480;9.688;2022-12-01T14:04:47;2.50;99.90
2407;DHT22;37709;53.480;9.688;2022-12-01T14:09:52;2.50;99.90
2407;DHT22;37709;53.480;9.688;2022-12-01T14:12:25;2.50;99.90
2407;DHT22;37709;53.480;9.688;2022-12-01T14:15:00;2.50;99.90
2407;DHT22;37709;53.480;9.688;2022-12-01T14:17:33;2.50;99.90
2407;DHT22;37709;53.480;9.688;2022-12-01T14:20:16;2.50;99.90
2407;DHT22;37709;53.480;9.688;2022-12-01T14:22:46;2.50;99.90
2407;DHT22;37709;53.480;9.688;2022-12-01T14:27:55;2.40;99.90
2407;DHT22;37709;53.480;9.688;2022-12-01T14:44:05;2.40;99.90
2407;DHT22;37709;53.480;9.688;2022-12-01T14:46:43;2.40;99.90
2407;DHT22;37709;53.480;9.688;2022-12-01T14:49:16;2.40;99.90
2407;DHT22;37709;53.480;9.688;2022-12-01T14:51:47;2.40;99.90
2407;DHT22;37709;53.480;9.688;2022-12-01T14:54:22;2.40;99.90
2407;DHT22;37709;53.480;9.688;2022-12-01T14:56:53;2.40;99.90
2407;DHT22;37709;53.480;9.688;2022-12-01T14:59:22;2.40;99.90
2407;DHT22;37709;53.480;9.688;2022-12-01T15:01:56;2.40;99.90
2407;DHT22;37709;53.480;9.688;2022-12-01T15:04:24;2.40;99.90
2407;DHT22;37709;53.480;9.688;2022-12-01T15:06:55;2.40;99.90
2407;DHT22;37709;53.480;9.688;2022-12-01T15:09:23;2.40;99.90
2407;DHT22;37709;53.480;9.688;2022-12-01T15:12:04;2.30;99.90
2407;DHT22;37709;53.480;9.688;2022-12-01T15:17:02;2.30;99.90
2407;DHT22;37709;53.480;9.688;2022-12-01T15:19:39;2.30;99.90
2407;DHT22;37709;53.480;9.688;2022-12-01T15:22:14;2.30;99.90
2407;DHT22;37709;53.480;9.688;2022-12-01T15:24:43;2.20;99.90
2407;DHT22;37709;53.480;9.688;2022-12-01T15:27:28;2.30;99.90
2407;DHT22;37709;53.480;9.688;2022-12-01T15:29:56;2.20;99.90
2407;DHT22;37709;53.480;9.688;2022-12-01T15:32:25;2.20;99.90
2407;DHT22;37709;53.480;9.688;2022-12-01T15:34:54;2.20;99.90
2407;DHT22;37709;53.480;9.688;2022-12-01T15:37:24;2.20;99.90
2407;DHT22;37709;53.480;9.688;2022-12-01T15:39:55;2.20;99.90
2407;DHT22;37709;53.480;9.688;2022-12-01T15:42:42;2.20;99.90
2407;DHT22;37709;53.480;9.688;2022-12-01T15:45:21;2.20;99.90
2407;DHT22;37709;53.480;9.688;2022-12-01T15:47:50;2.20;99.90
2407;DHT22;37709;53.480;9.688;2022-12-01T15:50:46;2.20;99.90
2407;DHT22;37709;53.480;9.688;2022-12-01T15:53:31;2.20;99.90
2407;DHT22;37709;53.480;9.688;2022-12-01T15:56:01;2.10;99.90
2407;DHT22;37709;53.480;9.688;2022-12-01T15:58:32;2.10;99.90
2407;DHT22;37709;53.480;9.688;2022-12-01T16:01:10;2.10;99.90
2407;DHT22;37709;53.480;9.688;2022-12-01T16:03:53;2.10;99.90
2407;DHT22;37709;53.480;9.688;2022-12-01T16:06:25;2.10;99.90
2407;DHT22;37709;53.480;9.688;2022-12-01T16:09:05;2.10;99.90
2407;DHT22;37709;53.480;9.688;2022-12-01T16:11:33;2.10;99.90
2407;DHT22;37709;53.480;9.688;2022-12-01T16:14:16;2.10;99.90
2407;DHT22;37709;53.480;9.688;2022-12-01T16:16:46;2.10;99.90
2407;DHT22;37709;53.480;9.688;2022-12-01T16:21:51;2.10;99.90
2407;DHT22;37709;53.480;9.688;2022-12-01T16:26:59;2.10;99.90
2407;DHT22;37709;53.480;9.688;2022-12-01T16:29:28;2.10;99.90
2407;DHT22;37709;53.480;9.688;2022-12-01T16:32:10;2.10;99.90
2407;DHT22;37709;53.480;9.688;2022-12-01T16:34:48;2.10;99.90
2407;DHT22;37709;53.480;9.688;2022-12-01T16:37:16;2.10;99.90
2407;DHT22;37709;53.480;9.688;2022-12-01T16:39:43;2.10;99.90
2407;DHT22;37709;53.480;9.688;2022-12-01T16:42:15;2.10;99.90
2407;DHT22;37709;53.480;9.688;2022-12-01T16:44:43;2.10;99.90
2407;DHT22;37709;53.480;9.688;2022-12-01T16:47:13;2.10;99.90
2407;DHT22;37709;53.480;9.688;2022-12-01T16:49:41;2.10;99.90
2407;DHT22;37709;53.480;9.688;2022-12-01T16:52:09;2.10;99.90
2407;DHT22;37709;53.480;9.688;2022-12-01T16:54:57;2.10;99.90
2407;DHT22;37709;53.480;9.688;2022-12-01T16:57:24;2.10;99.90
2407;DHT22;37709;53.480;9.688;2022-12-01T16:59:51;2.10;99.90
2407;DHT22;37709;53.480;9.688;2022-12-01T17:02:18;2.10;99.90
2407;DHT22;37709;53.480;9.688;2022-12-01T17:04:46;2.10;99.90
2407;DHT22;37709;53.480;9.688;2022-12-01T17:07:13;2.10;99.90
2407;DHT22;37709;53.480;9.688;2022-12-01T17:09:40;2.10;99.90
2407;DHT22;37709;53.480;9.688;2022-12-01T17:12:08;2.10;99.90
2407;DHT22;37709;53.480;9.688;2022-12-01T17:14:36;2.10;99.90
2407;DHT22;37709;53.480;9.688;2022-12-01T17:17:03;2.10;99.90
2407;DHT22;37709;53.480;9.688;2022-12-01T17:19:30;2.10;99.90
2407;DHT22;37709;53.480;9.688;2022-12-01T17:21:57;2.10;99.90
2407;DHT22;37709;53.480;9.688;2022-12-01T17:24:28;2.20;99.90
2407;DHT22;37709;53.480;9.688;2022-12-01T17:26:56;2.10;99.90
2407;DHT22;37709;53.480;9.688;2022-12-01T17:29:23;2.20;99.90
2407;DHT22;37709;53.480;9.688;2022-12-01T17:31:51;2.20;99.90
2407;DHT22;37709;53.480;9.688;2022-12-01T17:34:18;2.20;99.90
2407;DHT22;37709;53.480;9.688;2022-12-01T17:36:46;2.10;99.90
2407;DHT22;37709;53.480;9.688;2022-12-01T17:39:13;2.20;99.90
2407;DHT22;37709;53.480;9.688;2022-12-01T17:41:41;2.20;99.90
2407;DHT22;37709;53.480;9.688;2022-12-01T17:44:08;2.20;99.90
2407;DHT22;37709;53.480;9.688;2022-12-01T17:46:36;2.20;99.90
2407;DHT22;37709;53.480;9.688;2022-12-01T17:49:04;2.20;99.90
2407;DHT22;37709;53.480;9.688;2022-12-01T17:51:35;2.20;99.90
2407;DHT22;37709;53.480;9.688;2022-12-01T17:54:03;2.20;99.90
2407;DHT22;37709;53.480;9.688;2022-12-01T17:56:30;2.20;99.90
2407;DHT22;37709;53.480;9.688;2022-12-01T17:58:58;2.20;99.90
2407;DHT22;37709;53.480;9.688;2022-12-01T18:01:25;2.20;99.90
2407;DHT22;37709;53.480;9.688;2022-12-01T18:03:57;2.20;99.90
2407;DHT22;37709;53.480;9.688;2022-12-01T18:06:25;2.20;99.90
2407;DHT22;37709;53.480;9.688;2022-12-01T18:08:53;2.20;99.90
2407;DHT22;37709;53.480;9.688;2022-12-01T18:11:20;2.10;99.90
2407;DHT22;37709;53.480;9.688;2022-12-01T18:13:50;2.20;99.90
2407;DHT22;37709;53.480;9.688;2022-12-01T18:16:22;2.10;99.90
2407;DHT22;37709;53.480;9.688;2022-12-01T18:18:51;2.20;99.90
2407;DHT22;37709;53.480;9.688;2022-12-01T18:21:20;2.20;99.90
2407;DHT22;37709;53.480;9.688;2022-12-01T18:23:50;2.20;99.90
2407;DHT22;37709;53.480;9.688;2022-12-01T18:26:18;2.10;99.90
2407;DHT22;37709;53.480;9.688;2022-12-01T18:29:03;2.10;99.90